KPNC/PNC METAR and TAF weather

Enter ICAO airport designator
Station Type Date Time Source
KPNC METAR 2019/02/16 06:53 UTC NOAA

KPNC 160653Z AUTO 05006KT 10SM OVC010 M06/M09 A3007 RMK AO2 PRESRR SLP194 T10611089


Station Type Date Time Source
KPNC Decoded METAR 2019/02/16 06:53 UTC NOAA

PONCA CITY MUNICIPAL AIRPORT, OK, United States (KPNC) 36-44N 97-06W 308M
Feb 16, 2019 - 01:53 AM EST / 2019.02.16 0653 UTC
Wind: from the NE (050 degrees) at 7 MPH (6 KT):0
Visibility: 10 mile(s):0
Sky conditions: overcast
Temperature: 21.0 F (-6.1 C)
Windchill: 12 F (-11 C):1
Dew Point: 16.0 F (-8.9 C)
Relative Humidity: 80%
Pressure (altimeter): 30.07 in. Hg (1018 hPa)
Pressure tendency: rising rapidly
ob: KPNC 160653Z AUTO 05006KT 10SM OVC010 M06/M09 A3007 RMK AO2 PRESRR SLP194 T10611089
cycle: 7

Station Type Date Time Source
KPNC TAF 2019/02/16 06:22 UTC NOAA

TAF KPNC 160520Z 1606/1706 03010KT P6SM OVC013
TEMPO 1609/1612 OVC007
FM161800 10011KT P6SM OVC015


Example: see airport list